Time;durP1;ratioP1;P1;durP2;ratioP2;P2;SDS_P1;SDS_P2;PMS_P1;PMS_P2;Temp;Humidity;BMP_temperature;BMP_pressure;BME280_temperature;BME280_humidity;BME280_pressure;Samples;Min_cycle;Max_cycle;Signal;HPM_P1;HPM_P2
2023/02/10 00:02:20;;;;;;;;;;;;;;;2.67;63.99;99893.25;4915251;29;19926;-62
2023/02/10 00:04:45;;;;;;;;;;;;;;;2.66;64.12;99896.72;4916211;29;20010;-63
2023/02/10 00:07:10;;;;;;;;;;;;;;;2.60;64.36;99898.47;4910618;29;20042;-63
2023/02/10 00:09:35;;;;;;;;;;;;;;;2.59;64.61;99885.56;4916492;29;20010;-63
2023/02/10 00:12:01;;;;;;;;;;;;;;;2.51;63.98;99888.22;4914210;29;20010;-63
2023/02/10 00:14:27;;;;;;;;;;;;;;;2.49;64.27;99884.78;4912032;29;19958;-63
2023/02/10 00:16:52;;;;;;;;;;;;;;;2.47;64.70;99883.06;4906568;29;19978;-63
2023/02/10 00:19:18;;;;;;;;;;;;;;;2.46;64.46;99883.94;4916921;29;20339;-63
2023/02/10 00:21:43;;;;;;;;;;;;;;;2.35;62.60;99881.47;4912570;29;20281;-63
2023/02/10 00:24:08;;;;;;;;;;;;;;;2.36;64.27;99877.97;4916775;29;19927;-62
2023/02/10 00:26:34;;;;;;;;;;;;;;;2.36;64.19;99883.16;4914126;29;19926;-63
2023/02/10 00:28:59;;;;;;;;;;;;;;;2.38;64.07;99884.88;4916614;29;19978;-63
2023/02/10 00:31:24;;;;;;;;;;;;;;;2.36;64.19;99891.78;4916076;29;19983;-63
2023/02/10 00:33:49;;;;;;;;;;;;;;;2.34;64.30;99890.06;4912333;29;19919;-63
2023/02/10 00:36:14;;;;;;;;;;;;;;;2.32;64.07;99894.44;4914799;29;20446;-63
2023/02/10 00:38:40;;;;;;;;;;;;;;;2.28;64.22;99895.31;4917245;29;20483;-63
2023/02/10 00:41:09;;;;;;;;;;;;;;;2.28;63.95;99897.91;4914801;29;19926;-63
2023/02/10 00:43:34;;;;;;;;;;;;;;;2.28;64.23;99897.91;4915117;29;19966;-63
2023/02/10 00:45:59;;;;;;;;;;;;;;;2.27;64.44;99898.75;4909719;29;20351;-63
2023/02/10 00:48:25;;;;;;;;;;;;;;;2.25;64.19;99903.13;4915765;29;20018;-63
2023/02/10 00:50:50;;;;;;;;;;;;;;;2.27;64.48;99911.72;4916748;29;19970;-63
2023/02/10 00:53:15;;;;;;;;;;;;;;;2.23;64.95;99907.44;4911105;29;20423;-63
2023/02/10 00:55:40;;;;;;;;;;;;;;;2.21;64.88;99906.59;4914806;29;20340;-63
2023/02/10 00:58:05;;;;;;;;;;;;;;;2.21;65.12;99904.00;4914205;29;20331;-63
2023/02/10 01:00:31;;;;;;;;;;;;;;;2.20;65.17;99902.28;4917202;29;19966;-63
2023/02/10 01:02:56;;;;;;;;;;;;;;;2.13;63.86;99917.88;4912673;29;19927;-63
2023/02/10 01:05:21;;;;;;;;;;;;;;;2.14;64.62;99909.22;4915702;29;19919;-63
2023/02/10 01:07:46;;;;;;;;;;;;;;;2.12;64.60;99910.97;4916230;29;19946;-63
2023/02/10 01:10:11;;;;;;;;;;;;;;;2.04;64.01;99907.59;4916503;29;19927;-63
2023/02/10 01:12:37;;;;;;;;;;;;;;;2.05;63.66;99917.06;4915164;29;19919;-63
2023/02/10 01:15:02;;;;;;;;;;;;;;;2.03;64.05;99924.00;4914268;29;19927;-63
2023/02/10 01:17:27;;;;;;;;;;;;;;;2.03;64.76;99921.41;4913407;29;19919;-63
2023/02/10 01:19:52;;;;;;;;;;;;;;;2.08;64.79;99918.78;4913428;29;19926;-63
2023/02/10 01:22:18;;;;;;;;;;;;;;;2.08;64.67;99922.22;4909657;29;19919;-63
2023/02/10 01:24:43;;;;;;;;;;;;;;;2.10;64.80;99917.91;4914038;29;19919;-63
2023/02/10 01:27:08;;;;;;;;;;;;;;;2.08;64.20;99922.22;4913127;29;20002;-64
2023/02/10 01:29:33;;;;;;;;;;;;;;;2.07;64.15;99925.69;4914781;29;20013;-62
2023/02/10 01:31:58;;;;;;;;;;;;;;;2.00;63.21;99924.00;4911439;29;20026;-63
2023/02/10 01:34:24;;;;;;;;;;;;;;;1.97;64.30;99924.03;4915009;29;19954;-64
2023/02/10 01:36:49;;;;;;;;;;;;;;;1.94;65.00;99924.03;4912617;29;19981;-63
2023/02/10 01:39:15;;;;;;;;;;;;;;;1.90;64.72;99927.53;4914298;29;20395;-63
2023/02/10 01:41:40;;;;;;;;;;;;;;;1.92;65.09;99930.94;4911063;29;20414;-63
2023/02/10 01:44:06;;;;;;;;;;;;;;;1.93;65.20;99940.44;4915943;29;19927;-63
2023/02/10 01:46:32;;;;;;;;;;;;;;;1.93;64.66;99940.44;4912670;29;19926;-63
2023/02/10 01:48:58;;;;;;;;;;;;;;;1.86;64.66;99938.75;4911214;29;19923;-63
2023/02/10 01:51:24;;;;;;;;;;;;;;;1.81;64.86;99941.34;4912213;29;19919;-63
2023/02/10 01:53:49;;;;;;;;;;;;;;;1.81;65.40;99940.50;4912288;29;19975;-63
2023/02/10 01:56:15;;;;;;;;;;;;;;;1.84;65.39;99945.66;4914528;29;19919;-63
2023/02/10 01:58:41;;;;;;;;;;;;;;;1.79;64.24;99949.97;4912131;29;19919;-62
2023/02/10 02:01:06;;;;;;;;;;;;;;;1.80;64.75;99946.56;4914396;29;20336;-63
2023/02/10 02:03:32;;;;;;;;;;;;;;;1.77;64.53;99937.06;4913284;29;19919;-63
2023/02/10 02:05:57;;;;;;;;;;;;;;;1.79;65.06;99939.63;4914382;29;19915;-63
2023/02/10 02:08:23;;;;;;;;;;;;;;;1.72;63.41;99938.84;4912827;29;19919;-63
2023/02/10 02:10:49;;;;;;;;;;;;;;;1.71;64.19;99938.81;4911911;29;20383;-63
2023/02/10 02:13:23;;;;;;;;;;;;;;;1.64;64.31;99944.03;4912688;29;19923;-63
2023/02/10 02:16:06;;;;;;;;;;;;;;;1.69;65.64;99935.38;4914210;29;19923;-63
2023/02/10 02:18:37;;;;;;;;;;;;;;;1.72;65.80;99932.78;4910001;29;19950;-62
2023/02/10 02:21:07;;;;;;;;;;;;;;;1.74;65.84;99923.28;4914628;29;20462;-62
2023/02/10 02:23:51;;;;;;;;;;;;;;;1.72;65.53;99932.78;4913168;29;19926;-63
2023/02/10 02:26:28;;;;;;;;;;;;;;;1.69;65.11;99919.84;4911505;29;20344;-63
2023/02/10 02:29:14;;;;;;;;;;;;;;;1.53;61.23;99919.94;4912226;29;19947;-63
2023/02/10 02:31:39;;;;;;;;;;;;;;;1.57;64.32;99929.41;4913624;29;19925;-63
2023/02/10 02:34:15;;;;;;;;;;;;;;;1.59;64.89;99939.75;4913104;29;19919;-63
2023/02/10 02:36:41;;;;;;;;;;;;;;;1.63;65.57;99937.13;4913716;29;19967;-63
2023/02/10 02:39:06;;;;;;;;;;;;;;;1.66;65.58;99950.06;4910405;29;19923;-63
2023/02/10 02:41:32;;;;;;;;;;;;;;;1.65;64.98;99945.75;4913179;29;19919;-63
2023/02/10 02:43:57;;;;;;;;;;;;;;;1.64;65.27;99949.19;4914744;29;19982;-63
2023/02/10 02:46:22;;;;;;;;;;;;;;;1.62;65.68;99953.53;4907294;29;19919;-63
2023/02/10 02:48:58;;;;;;;;;;;;;;;1.65;66.16;99960.41;4913794;29;19919;-63
2023/02/10 02:51:35;;;;;;;;;;;;;;;1.63;65.86;99957.84;4897121;29;19926;-63
2023/02/10 02:54:04;;;;;;;;;;;;;;;1.67;65.65;99961.25;4913928;29;20435;-63
2023/02/10 02:56:40;;;;;;;;;;;;;;;1.67;65.45;99964.72;4916111;29;19974;-63
2023/02/10 02:59:11;;;;;;;;;;;;;;;1.65;64.95;99965.56;4916819;29;20009;-63
2023/02/10 03:01:38;;;;;;;;;;;;;;;1.62;64.95;99965.63;4914045;29;19918;-63
2023/02/10 03:04:05;;;;;;;;;;;;;;;1.58;65.12;99957.00;4913129;29;20375;-63
2023/02/10 03:06:30;;;;;;;;;;;;;;;1.56;64.86;99966.50;4914851;29;20014;-63
2023/02/10 03:08:56;;;;;;;;;;;;;;;1.50;63.95;99961.34;4918800;29;20002;-62
2023/02/10 03:11:21;;;;;;;;;;;;;;;1.49;64.80;99958.75;4915908;29;20013;-63
2023/02/10 03:13:46;;;;;;;;;;;;;;;1.47;64.90;99960.47;4911409;29;20018;-62
2023/02/10 03:16:11;;;;;;;;;;;;;;;1.42;64.84;99955.34;4916593;29;20006;-62
2023/02/10 03:18:37;;;;;;;;;;;;;;;1.44;65.09;99956.19;4918181;29;20034;-63
2023/02/10 03:21:02;;;;;;;;;;;;;;;1.45;65.29;99952.75;4918251;29;20003;-63
2023/02/10 03:23:27;;;;;;;;;;;;;;;1.42;64.91;99953.63;4916617;29;20010;-62
2023/02/10 03:25:52;;;;;;;;;;;;;;;1.42;65.34;99958.78;4908622;29;20009;-62
2023/02/10 03:28:17;;;;;;;;;;;;;;;1.43;65.70;99949.28;4916077;29;20006;-63
2023/02/10 03:30:47;;;;;;;;;;;;;;;1.37;65.28;99944.13;4918589;29;20010;-63
2023/02/10 03:33:12;;;;;;;;;;;;;;;1.42;65.53;99948.44;4915682;29;20439;-62
2023/02/10 03:35:39;;;;;;;;;;;;;;;1.41;65.09;99949.31;4916481;29;20006;-63
2023/02/10 03:38:04;;;;;;;;;;;;;;;1.39;64.74;99953.63;4916736;29;19992;-62
2023/02/10 03:40:29;;;;;;;;;;;;;;;1.37;64.66;99954.47;4910398;29;19915;-62
2023/02/10 03:42:55;;;;;;;;;;;;;;;1.33;65.12;99955.38;4917600;29;19941;-63
2023/02/10 03:45:20;;;;;;;;;;;;;;;1.35;65.15;99951.91;4915809;29;20014;-62
2023/02/10 03:47:45;;;;;;;;;;;;;;;1.40;65.15;99951.88;4914605;29;19966;-63
2023/02/10 03:50:10;;;;;;;;;;;;;;;1.42;64.89;99960.50;4917819;29;19966;-63
2023/02/10 03:52:35;;;;;;;;;;;;;;;1.42;64.94;99963.94;4917521;29;19934;-63
2023/02/10 03:55:01;;;;;;;;;;;;;;;1.42;64.71;99963.09;4912511;29;19923;-63
2023/02/10 03:57:26;;;;;;;;;;;;;;;1.41;64.87;99959.66;4924735;29;19926;-63
2023/02/10 03:59:51;;;;;;;;;;;;;;;1.36;64.93;99968.28;4914928;29;19923;-63
2023/02/10 04:02:16;;;;;;;;;;;;;;;1.36;65.22;99970.88;4912228;29;19915;-63
2023/02/10 04:04:42;;;;;;;;;;;;;;;1.35;64.40;99972.59;4915107;29;19926;-63
2023/02/10 04:07:07;;;;;;;;;;;;;;;1.31;65.02;99970.03;4915040;29;19919;-63
2023/02/10 04:09:32;;;;;;;;;;;;;;;1.29;65.16;99966.59;4916319;29;19923;-63
2023/02/10 04:11:57;;;;;;;;;;;;;;;1.28;65.04;99968.31;4917462;29;20439;-63
2023/02/10 04:14:23;;;;;;;;;;;;;;;1.28;64.63;99980.38;4916471;29;19919;-63
2023/02/10 04:16:48;;;;;;;;;;;;;;;1.30;64.87;99979.50;4915225;29;19919;-63
2023/02/10 04:19:13;;;;;;;;;;;;;;;1.34;65.02;99985.50;4917248;29;19919;-62
2023/02/10 04:21:38;;;;;;;;;;;;;;;1.34;64.74;99982.94;4915942;29;19919;-63
2023/02/10 04:24:04;;;;;;;;;;;;;;;1.34;64.89;99990.69;4909124;29;19990;-63
2023/02/10 04:26:29;;;;;;;;;;;;;;;1.00;58.11;99998.53;4914201;29;20022;-63
2023/02/10 04:28:54;;;;;;;;;;;;;;;0.98;61.19;100000.25;4908417;29;20002;-62
2023/02/10 04:31:19;;;;;;;;;;;;;;;1.10;64.72;100002.81;4911820;29;20269;-63
2023/02/10 04:33:44;;;;;;;;;;;;;;;1.11;64.98;100001.94;4913300;29;20336;-63
2023/02/10 04:36:10;;;;;;;;;;;;;;;1.12;64.47;100000.22;4916946;29;19919;-63
2023/02/10 04:38:35;;;;;;;;;;;;;;;1.12;64.92;100011.41;4915838;29;19926;-63
2023/02/10 04:41:02;;;;;;;;;;;;;;;1.11;65.01;100014.88;4914666;29;20502;-63
2023/02/10 04:43:27;;;;;;;;;;;;;;;1.06;64.15;100011.41;4911589;29;19926;-63
2023/02/10 04:45:53;;;;;;;;;;;;;;;1.06;64.00;100013.16;4915604;29;19918;-63
2023/02/10 04:48:19;;;;;;;;;;;;;;;1.00;64.25;100011.44;4913657;29;19965;-63
2023/02/10 04:50:44;;;;;;;;;;;;;;;0.97;63.67;100021.78;4916671;29;19988;-62
2023/02/10 04:53:10;;;;;;;;;;;;;;;0.83;60.35;100023.53;4912610;29;19924;-63
2023/02/10 04:55:35;;;;;;;;;;;;;;;0.77;62.57;100028.69;4910211;29;19919;-63
2023/02/10 04:58:00;;;;;;;;;;;;;;;0.64;62.55;100032.97;4914346;29;19927;-63
2023/02/10 05:00:25;;;;;;;;;;;;;;;0.63;63.93;100026.94;4912951;29;19926;-62
2023/02/10 05:02:51;;;;;;;;;;;;;;;0.60;64.19;100028.66;4916228;29;19919;-63
2023/02/10 05:05:16;;;;;;;;;;;;;;;0.51;62.90;100039.84;4915357;29;19919;-61
2023/02/10 05:07:41;;;;;;;;;;;;;;;0.45;61.80;100037.28;4915987;29;19919;-63
2023/02/10 05:10:06;;;;;;;;;;;;;;;0.38;62.26;100035.50;4913586;29;20410;-62
2023/02/10 05:12:31;;;;;;;;;;;;;;;0.40;63.26;100038.97;4917908;29;20375;-62
2023/02/10 05:14:57;;;;;;;;;;;;;;;0.36;62.77;100038.09;4914100;29;19926;-62
2023/02/10 05:17:22;;;;;;;;;;;;;;;0.34;63.69;100039.81;4913449;29;19919;-62
2023/02/10 08:40:38;;;;;;;;;;;;;;;-1.40;64.02;100162.44;5782855;23;20034;-63
2023/02/10 08:43:03;;;;;;;;;;;;;;;-1.33;65.03;100167.66;4927139;29;20005;-64
2023/02/10 08:45:29;;;;;;;;;;;;;;;-1.27;64.88;100166.88;4932300;29;20321;-65
2023/02/10 08:47:54;;;;;;;;;;;;;;;-0.92;67.74;100169.78;4932063;29;19922;-64
2023/02/10 08:50:19;;;;;;;;;;;;;;;-0.85;64.84;100166.41;4932093;29;19925;-64
2023/02/10 08:52:44;;;;;;;;;;;;;;;-0.81;64.60;100160.44;4932931;29;20021;-65
2023/02/10 08:55:11;;;;;;;;;;;;;;;-0.79;64.00;100163.91;4932006;29;19962;-65
2023/02/10 08:57:37;;;;;;;;;;;;;;;-0.78;64.21;100165.59;4929853;29;19970;-65
2023/02/10 09:00:02;;;;;;;;;;;;;;;-0.77;64.90;100162.16;4931816;29;19923;-63
2023/02/10 09:02:27;;;;;;;;;;;;;;;-0.72;65.34;100165.66;4933467;29;19926;-64
2023/02/10 09:04:53;;;;;;;;;;;;;;;-0.66;66.21;100163.97;4932097;29;19983;-63
2023/02/10 09:07:18;;;;;;;;;;;;;;;-0.62;66.04;100161.44;4933292;29;19926;-63
2023/02/10 09:09:43;;;;;;;;;;;;;;;-0.54;65.87;100159.78;4933480;29;20017;-64
2023/02/10 09:12:11;;;;;;;;;;;;;;;-0.46;65.60;100165.00;4928501;29;19970;-64
2023/02/10 09:14:36;;;;;;;;;;;;;;;-0.39;65.93;100169.34;4931312;29;20094;-63
2023/02/10 09:17:01;;;;;;;;;;;;;;;-0.31;66.23;100172.84;4934855;29;20005;-63
2023/02/10 09:19:27;;;;;;;;;;;;;;;-0.22;65.71;100184.94;4931745;29;19927;-65
2023/02/10 09:21:52;;;;;;;;;;;;;;;-0.14;65.40;100180.66;4929568;29;19966;-63
2023/02/10 09:24:17;;;;;;;;;;;;;;;0.03;69.96;100185.94;4930039;29;20410;-62
2023/02/10 09:26:43;;;;;;;;;;;;;;;0.51;72.47;100191.31;4928277;29;20382;-64
2023/02/10 09:29:08;;;;;;;;;;;;;;;1.02;71.19;100195.75;4927467;29;19927;-63
2023/02/10 09:31:33;;;;;;;;;;;;;;;1.46;70.51;100183.75;4932102;29;20302;-63
2023/02/10 09:33:59;;;;;;;;;;;;;;;1.65;67.30;100183.75;4932252;29;20628;-63
2023/02/10 09:36:24;;;;;;;;;;;;;;;1.73;65.21;100188.91;4926357;29;20009;-64
2023/02/10 09:38:49;;;;;;;;;;;;;;;1.78;64.07;100188.88;4931288;29;19919;-64
2023/02/10 09:41:18;;;;;;;;;;;;;;;1.83;64.15;100190.63;4928469;29;19942;-64
2023/02/10 09:44:02;;;;;;;;;;;;;;;1.89;64.18;100188.03;4930349;29;20410;-64
2023/02/10 09:46:45;;;;;;;;;;;;;;;2.00;64.24;100182.81;4937204;29;19945;-63
2023/02/10 09:49:23;;;;;;;;;;;;;;;2.09;63.75;100179.34;4923107;29;20009;-62
2023/02/10 09:51:54;;;;;;;;;;;;;;;2.17;63.12;100187.06;4931411;29;19923;-62
2023/02/10 09:54:19;;;;;;;;;;;;;;;2.27;62.92;100191.34;4937476;29;19919;-64
2023/02/10 09:56:44;;;;;;;;;;;;;;;2.32;61.84;100187.91;4932031;28;19919;-63
2023/02/10 09:59:14;;;;;;;;;;;;;;;2.43;62.76;100190.44;4930167;29;19926;-63
2023/02/10 10:01:43;;;;;;;;;;;;;;;2.54;62.80;100183.47;4932365;29;19925;-65
2023/02/10 10:04:09;;;;;;;;;;;;;;;2.66;62.32;100186.91;4935526;29;19949;-61
2023/02/10 10:06:36;;;;;;;;;;;;;;;2.78;62.33;100186.81;4937295;29;19922;-62
2023/02/10 10:09:01;;;;;;;;;;;;;;;2.91;61.66;100185.88;4932957;29;19918;-62
2023/02/10 10:11:37;;;;;;;;;;;;;;;3.02;61.21;100184.09;4933693;29;20288;-62
2023/02/10 10:14:02;;;;;;;;;;;;;;;3.11;61.09;100180.59;4928546;29;19923;-63
2023/02/10 10:16:30;;;;;;;;;;;;;;;3.21;60.42;100189.16;4931395;29;19919;-63
2023/02/10 10:19:22;;;;;;;;;;;;;;;3.31;60.85;100189.09;4934011;29;19966;-63
2023/02/10 10:21:51;;;;;;;;;;;;;;;4.49;68.75;100185.31;4931863;29;19922;-61
2023/02/10 10:24:33;;;;;;;;;;;;;;;5.23;62.35;100184.31;4915768;29;19919;-61
2023/02/10 10:26:59;;;;;;;;;;;;;;;5.65;57.62;100172.34;4931168;29;19919;-63
2023/02/10 10:29:32;;;;;;;;;;;;;;;5.70;55.70;100174.84;4932479;29;19933;-64
2023/02/10 10:32:09;;;;;;;;;;;;;;;5.63;54.47;100184.50;4924175;29;19971;-65
2023/02/10 10:34:34;;;;;;;;;;;;;;;5.55;54.68;100185.53;4929402;29;19925;-66
2023/02/10 10:36:59;;;;;;;;;;;;;;;5.48;54.82;100180.41;4925300;29;20302;-65
2023/02/10 10:39:24;;;;;;;;;;;;;;;5.45;54.91;100184.81;4931385;29;19923;-64
2023/02/10 10:41:50;;;;;;;;;;;;;;;5.42;54.44;100179.66;4933098;29;19970;-64
2023/02/10 10:44:16;;;;;;;;;;;;;;;5.41;54.37;100176.22;4931680;29;20001;-64
2023/02/10 10:46:41;;;;;;;;;;;;;;;5.47;55.00;100176.13;4930918;29;19977;-62
2023/02/10 10:49:06;;;;;;;;;;;;;;;5.58;54.99;100175.06;4931090;29;19919;-62
2023/02/10 10:51:34;;;;;;;;;;;;;;;5.71;54.68;100171.34;4926040;29;19923;-62
2023/02/10 10:53:59;;;;;;;;;;;;;;;5.79;54.46;100159.06;4932530;29;19919;-63
2023/02/10 10:56:33;;;;;;;;;;;;;;;5.93;53.59;100158.84;4932841;29;19919;-63
2023/02/10 10:58:58;;;;;;;;;;;;;;;6.11;53.40;100165.44;4931064;29;19941;-61
2023/02/10 11:01:34;;;;;;;;;;;;;;;6.19;53.57;100158.34;4931525;29;20378;-62
2023/02/10 11:04:06;;;;;;;;;;;;;;;6.25;53.16;100158.22;4933278;29;19962;-63
2023/02/10 11:06:35;;;;;;;;;;;;;;;6.30;52.72;100159.00;4932027;29;20379;-63
2023/02/10 11:09:00;;;;;;;;;;;;;;;6.36;51.87;100153.66;4929964;29;19926;-62
2023/02/10 11:11:36;;;;;;;;;;;;;;;6.42;51.60;100156.13;4932281;29;19941;-63
2023/02/10 11:14:02;;;;;;;;;;;;;;;6.51;51.91;100149.03;4932584;29;20397;-63
2023/02/10 11:16:27;;;;;;;;;;;;;;;6.60;51.42;100149.66;4927830;29;20005;-62
2023/02/10 11:18:59;;;;;;;;;;;;;;;6.51;48.64;100149.03;4932962;29;19926;-62
2023/02/10 11:21:34;;;;;;;;;;;;;;;6.47;48.54;100148.25;4936897;29;19914;-63
2023/02/10 11:23:59;;;;;;;;;;;;;;;6.63;49.73;100144.38;4936293;29;20385;-62
2023/02/10 11:26:25;;;;;;;;;;;;;;;6.71;49.73;100145.97;4935731;29;20163;-63
2023/02/10 11:28:50;;;;;;;;;;;;;;;6.60;46.89;100149.66;4927758;29;19925;-62
2023/02/10 11:31:21;;;;;;;;;;;;;;;6.57;47.24;100146.28;4936854;29;19915;-62
2023/02/10 11:34:16;;;;;;;;;;;;;;;6.55;47.74;100145.47;4936952;29;19927;-62
2023/02/10 11:36:41;;;;;;;;;;;;;;;6.55;48.67;100150.69;4925878;29;19926;-61
2023/02/10 11:39:36;;;;;;;;;;;;;;;6.53;47.39;100142.88;4933181;29;19918;-63
2023/02/10 11:42:08;;;;;;;;;;;;;;;6.75;49.08;100139.81;4897502;29;19941;-61
2023/02/10 11:44:33;;;;;;;;;;;;;;;7.12;48.72;100134.59;4902494;29;19924;-61
2023/02/10 11:46:59;;;;;;;;;;;;;;;7.31;46.00;100133.25;4894648;29;20539;-62
2023/02/10 11:49:27;;;;;;;;;;;;;;;7.61;45.30;100121.19;4888159;29;19924;-61
2023/02/10 11:51:53;;;;;;;;;;;;;;;7.98;45.41;100129.78;4894790;29;19926;-60
2023/02/10 11:54:18;;;;;;;;;;;;;;;8.33;44.84;100126.22;4901753;29;20407;-62
2023/02/10 12:00:06;;;;;;;;;;;;;;;8.97;43.15;100116.41;4870459;29;20068;-65
2023/02/10 12:02:38;;;;;;;;;;;;;;;9.19;42.15;100114.00;4896274;29;19916;-65
2023/02/10 12:05:16;;;;;;;;;;;;;;;9.70;42.95;100115.78;4893057;29;19927;-65
2023/02/10 12:07:51;;;;;;;;;;;;;;;10.27;41.48;100115.53;4893103;29;20407;-65
2023/02/10 12:10:31;;;;;;;;;;;;;;;10.78;39.77;100117.09;4876997;29;19931;-66
2023/02/10 12:12:59;;;;;;;;;;;;;;;11.35;40.03;100113.88;4898448;29;19943;-65
2023/02/10 12:15:33;;;;;;;;;;;;;;;11.84;39.44;100111.00;4881001;29;19916;-66
2023/02/10 12:18:17;;;;;;;;;;;;;;;12.22;38.89;100111.06;4906298;29;19931;-66
2023/02/10 12:20:42;;;;;;;;;;;;;;;12.41;38.24;100105.81;4933402;29;19951;-64
2023/02/10 12:23:14;;;;;;;;;;;;;;;12.56;36.42;100105.97;4932430;29;20389;-65
2023/02/10 12:25:39;;;;;;;;;;;;;;;12.83;36.62;100093.28;4936242;29;20025;-65
2023/02/10 12:28:04;;;;;;;;;;;;;;;13.14;35.97;100086.50;4933412;29;20457;-65
2023/02/10 12:30:32;;;;;;;;;;;;;;;13.14;35.08;100085.66;4931927;29;19925;-68
2023/02/10 12:33:00;;;;;;;;;;;;;;;13.05;35.02;100082.56;4926275;29;19923;-67
2023/02/10 12:35:46;;;;;;;;;;;;;;;13.16;34.29;100081.19;4931121;29;19923;-65
2023/02/10 12:38:17;;;;;;;;;;;;;;;13.10;34.51;100079.69;4928034;29;19919;-63
2023/02/10 12:40:51;;;;;;;;;;;;;;;13.16;34.33;100078.53;4933901;29;19919;-64
2023/02/10 12:43:19;;;;;;;;;;;;;;;15.51;39.02;100079.91;4932427;29;19922;-63
2023/02/10 12:45:51;;;;;;;;;;;;;;;15.67;30.39;100067.50;4929997;29;19922;-66
2023/02/10 12:48:35;;;;;;;;;;;;;;;14.84;31.37;100069.66;4940623;29;19965;-66
2023/02/10 12:51:13;;;;;;;;;;;;;;;14.09;32.27;100067.63;4936365;29;19998;-66
2023/02/10 12:53:40;;;;;;;;;;;;;;;12.94;33.17;100074.34;4933644;29;20379;-66
2023/02/10 12:56:07;;;;;;;;;;;;;;;12.45;34.42;100079.28;4932001;29;19918;-65
2023/02/10 12:58:34;;;;;;;;;;;;;;;11.48;35.88;100080.06;4934442;29;19921;-65
2023/02/10 13:01:13;;;;;;;;;;;;;;;11.06;36.67;100087.97;4930890;29;19927;-66
2023/02/10 13:03:39;;;;;;;;;;;;;;;10.54;37.66;100082.16;4934250;29;19919;-65
2023/02/10 13:06:19;;;;;;;;;;;;;;;9.70;39.21;100084.34;4933558;29;19947;-65
2023/02/10 13:08:56;;;;;;;;;;;;;;;9.46;39.50;100085.16;4935612;29;20441;-65
2023/02/10 13:11:41;;;;;;;;;;;;;;;9.47;40.40;100077.25;4931824;29;19918;-65
2023/02/10 13:14:09;;;;;;;;;;;;;;;9.46;41.18;100079.91;4933718;29;20334;-65
2023/02/10 13:16:35;;;;;;;;;;;;;;;9.43;40.51;100077.44;4932120;29;20418;-65
2023/02/10 13:19:19;;;;;;;;;;;;;;;9.63;40.09;100077.56;4930080;29;19962;-64
2023/02/10 13:21:49;;;;;;;;;;;;;;;9.47;40.24;100072.03;4934234;29;19926;-64
2023/02/10 13:24:18;;;;;;;;;;;;;;;9.59;39.93;100075.13;4932975;29;20379;-64
2023/02/10 13:26:47;;;;;;;;;;;;;;;9.81;41.32;100067.38;4931444;29;19929;-65
2023/02/10 13:29:15;;;;;;;;;;;;;;;10.34;40.60;100069.81;4930429;29;19925;-65
2023/02/10 13:31:44;;;;;;;;;;;;;;;10.53;39.24;100068.19;4929469;29;20078;-67
2023/02/10 13:34:25;;;;;;;;;;;;;;;10.64;37.96;100063.38;4930226;29;19919;-65
2023/02/10 13:36:52;;;;;;;;;;;;;;;10.70;38.75;100067.50;4930445;29;19919;-64
2023/02/10 13:39:19;;;;;;;;;;;;;;;10.25;38.04;100070.09;4934308;29;19927;-65
2023/02/10 13:41:48;;;;;;;;;;;;;;;10.10;39.24;100069.78;4931832;29;19919;-65
2023/02/10 13:44:16;;;;;;;;;;;;;;;10.20;39.80;100075.53;4931611;29;20210;-62
2023/02/10 13:46:41;;;;;;;;;;;;;;;10.19;39.01;100072.06;4934412;29;20335;-65
2023/02/10 13:49:11;;;;;;;;;;;;;;;9.92;39.27;100070.44;4932684;29;19919;-64
2023/02/10 13:51:36;;;;;;;;;;;;;;;9.65;39.60;100078.38;4930487;29;19918;-65
2023/02/10 13:54:02;;;;;;;;;;;;;;;9.58;40.22;100074.25;4915413;29;19929;-66
2023/02/10 13:56:28;;;;;;;;;;;;;;;9.59;40.33;100080.34;4933091;29;20543;-67
2023/02/10 13:59:12;;;;;;;;;;;;;;;9.51;40.12;100078.84;4931933;29;20006;-66
2023/02/10 14:01:47;;;;;;;;;;;;;;;9.57;41.11;100077.81;4930507;29;19919;-66
2023/02/10 14:04:18;;;;;;;;;;;;;;;9.82;39.99;100071.69;4929915;29;21882;-66
2023/02/10 14:06:44;;;;;;;;;;;;;;;9.70;40.71;100073.84;4932723;29;19922;-65
2023/02/10 14:09:28;;;;;;;;;;;;;;;9.73;40.13;100072.88;4933335;29;19919;-64
2023/02/10 14:11:53;;;;;;;;;;;;;;;9.43;40.51;100069.56;4931609;29;19927;-66
2023/02/10 14:14:26;;;;;;;;;;;;;;;9.61;40.71;100068.06;4932164;29;20366;-65
2023/02/10 14:16:51;;;;;;;;;;;;;;;9.99;39.74;100061.44;4930895;29;20058;-64
2023/02/10 14:19:29;;;;;;;;;;;;;;;10.34;39.00;100060.16;4928937;29;20009;-64
2023/02/10 14:21:54;;;;;;;;;;;;;;;10.54;38.61;100051.53;4931507;29;19925;-64
2023/02/10 14:24:27;;;;;;;;;;;;;;;10.52;38.93;100058.59;4925277;29;19927;-67
2023/02/10 14:26:52;;;;;;;;;;;;;;;10.90;38.95;100051.81;4931775;29;19950;-65
2023/02/10 14:29:18;;;;;;;;;;;;;;;11.11;38.13;100055.38;4930280;29;19966;-64
2023/02/10 14:31:51;;;;;;;;;;;;;;;11.38;37.57;100050.69;4931015;29;19933;-65
2023/02/10 14:34:17;;;;;;;;;;;;;;;11.53;37.38;100048.34;4929138;29;19919;-65
2023/02/10 14:36:56;;;;;;;;;;;;;;;11.33;36.94;100052.69;4930238;29;19926;-65
2023/02/10 14:39:22;;;;;;;;;;;;;;;11.40;37.81;100048.88;4926091;29;19918;-65
2023/02/10 14:41:47;;;;;;;;;;;;;;;11.60;37.06;100050.66;4915507;29;19923;-64
2023/02/10 14:44:18;;;;;;;;;;;;;;;11.85;37.70;100053.06;4931172;29;20401;-65
2023/02/10 14:46:43;;;;;;;;;;;;;;;11.70;37.07;100055.47;4933021;29;20393;-66
2023/02/10 14:49:09;;;;;;;;;;;;;;;11.90;36.52;100052.84;4929425;29;20408;-66
2023/02/10 14:51:37;;;;;;;;;;;;;;;11.84;36.56;100053.16;4946390;28;20487;-65
2023/02/10 14:54:30;;;;;;;;;;;;;;;11.95;35.89;100050.91;4950501;28;19931;-65
2023/02/10 14:56:59;;;;;;;;;;;;;;;12.03;36.43;100055.81;4933768;29;19919;-66
2023/02/10 14:59:27;;;;;;;;;;;;;;;11.85;36.25;100054.84;4935342;29;20438;-64
2023/02/10 15:01:52;;;;;;;;;;;;;;;11.76;35.97;100047.31;4934335;29;19923;-64
2023/02/10 15:04:17;;;;;;;;;;;;;;;11.73;36.92;100044.84;4948751;28;20284;-65
2023/02/10 15:06:46;;;;;;;;;;;;;;;11.37;37.61;100048.16;4936769;29;19923;-65
2023/02/10 15:09:13;;;;;;;;;;;;;;;11.27;37.75;100046.81;4955324;29;20294;-66
2023/02/10 15:14:34;;;;;;;;;;;;;;;11.01;38.46;100051.41;4933338;29;19974;-65
2023/02/10 15:17:00;;;;;;;;;;;;;;;10.86;38.11;100046.75;4935238;29;20021;-66
2023/02/10 15:19:25;;;;;;;;;;;;;;;10.61;39.39;100049.53;4939413;29;20466;-66
2023/02/10 15:21:52;;;;;;;;;;;;;;;10.38;40.00;100046.00;4934991;29;19923;-66
2023/02/10 15:24:35;;;;;;;;;;;;;;;11.24;50.18;100047.81;4940747;29;19918;-64
2023/02/10 15:27:16;;;;;;;;;;;;;;;11.78;42.19;100040.25;4933613;29;20287;-64
2023/02/10 15:29:41;;;;;;;;;;;;;;;12.08;40.10;100046.78;4935684;29;19926;-63
2023/02/10 15:32:16;;;;;;;;;;;;;;;12.22;39.19;100035.63;4934352;29;19926;-63
2023/02/10 15:34:41;;;;;;;;;;;;;;;12.29;38.29;100039.69;4932911;29;19919;-62
2023/02/10 15:37:13;;;;;;;;;;;;;;;12.33;37.70;100040.41;4935742;29;20338;-65
2023/02/10 15:39:39;;;;;;;;;;;;;;;11.54;36.82;100045.66;4925583;29;19981;-63
2023/02/10 15:42:14;;;;;;;;;;;;;;;10.71;38.17;100042.16;4934126;29;19923;-63
2023/02/10 15:44:42;;;;;;;;;;;;;;;10.08;40.53;100037.53;4932143;29;19919;-63
2023/02/10 15:47:11;;;;;;;;;;;;;;;12.78;47.32;100031.22;4934810;29;19919;-63
2023/02/10 15:49:36;;;;;;;;;;;;;;;14.41;39.87;100031.56;4934197;29;19926;-63
2023/02/10 15:52:01;;;;;;;;;;;;;;;14.74;38.42;100033.31;4936211;29;19927;-63
2023/02/10 15:54:28;;;;;;;;;;;;;;;14.85;36.93;100029.09;4936647;29;20009;-63
2023/02/10 15:56:57;;;;;;;;;;;;;;;15.02;36.37;100032.56;4933288;29;19934;-63
2023/02/10 15:59:27;;;;;;;;;;;;;;;15.01;36.05;100028.22;4933536;29;20413;-63
2023/02/10 16:01:52;;;;;;;;;;;;;;;13.64;33.24;100026.94;4940247;29;19918;-64
2023/02/10 16:04:17;;;;;;;;;;;;;;;11.87;36.09;100031.97;4934539;29;19973;-65
2023/02/10 16:06:43;;;;;;;;;;;;;;;10.66;37.88;100027.41;4935617;29;19927;-64
2023/02/10 16:09:09;;;;;;;;;;;;;;;9.80;39.71;100037.66;4934009;29;19974;-64
2023/02/10 16:11:34;;;;;;;;;;;;;;;9.10;41.37;100035.75;4934809;29;19919;-65
2023/02/10 16:13:59;;;;;;;;;;;;;;;8.56;42.34;100044.47;4934965;29;20022;-63
2023/02/10 16:16:24;;;;;;;;;;;;;;;8.08;43.98;100048.47;4936684;29;19915;-64
2023/02/10 16:18:49;;;;;;;;;;;;;;;7.69;44.88;100050.47;4932402;29;19925;-63
2023/02/10 16:21:15;;;;;;;;;;;;;;;7.30;45.89;100053.25;4935724;29;19918;-64